Butterfly — C6UP2 — position and weather

sailwx.info

Track history (hours):
 
Tides and Currents Weather Stations Pressure Air Temp Water Temp Dewpoint Dewpoint Depression Visibility Wind Speed Wind Dir Waves Ship Positions

Butterfly

Last reported at 2014-Aug-20 12:32 UTC. Time now 2014-Aug-20 12:42 UTC.
Position N 45°38' W 073°29'.

Length 182 m; draft 9.3 m.

Type: Ship. MMSI: 311985000.

Date/timePositionNaut miles runAvg speedWind from/ knotsBaromVisibWave heightAir tempDewpointWater temp
2014-Aug-20 12:32N 45°38' W 073°29'0 0.0
2014-Aug-20 11:32N 45°38' W 073°29'0 0.0
2014-Aug-20 10:32N 45°38' W 073°29'0 0.0
2014-Aug-20 09:32N 45°38' W 073°29'0 0.0
2014-Aug-20 08:32N 45°38' W 073°29'0 0.0
2014-Aug-20 07:32N 45°38' W 073°29'0 0.0
2014-Aug-20 06:33N 45°38' W 073°29'1 1.0
2014-Aug-20 05:33N 45°37' W 073°30'1 0.7
2014-Aug-20 04:28N 45°37' W 073°30'0 0.0
2014-Aug-20 03:31N 45°37' W 073°30'0 0.0
2014-Aug-20 02:31N 45°37' W 073°30'0 0.0
2014-Aug-20 01:31N 45°37' W 073°30'0 0.0
2014-Aug-20 00:31N 45°37' W 073°30'0 0.0
2014-Aug-19 23:31N 45°37' W 073°30'0 0.0
2014-Aug-19 22:31N 45°37' W 073°30'0 0.0
2014-Aug-19 21:31N 45°37' W 073°30'0 0.0
2014-Aug-19 20:31N 45°37' W 073°30'0 0.0
2014-Aug-19 19:31N 45°37' W 073°30'0 0.0
2014-Aug-19 18:31N 45°37' W 073°30'0 0.0
2014-Aug-19 17:31N 45°37' W 073°30'0 0.0
2014-Aug-19 16:31N 45°37' W 073°30'0 0.0
2014-Aug-19 15:31N 45°37' W 073°30'0 0.0
2014-Aug-19 14:31N 45°37' W 073°30'0 0.0
2014-Aug-19 13:31N 45°37' W 073°30'0 0.0
2014-Aug-19 12:31N 45°37' W 073°30'0 0.0
2014-Aug-19 11:31N 45°37' W 073°30'0 0.0
2014-Aug-19 10:31N 45°37' W 073°30'0 0.0
2014-Aug-19 09:31N 45°37' W 073°30'0 0.0
2014-Aug-19 08:31N 45°37' W 073°30'0 0.0
2014-Aug-19 07:31N 45°37' W 073°30'0 0.0
2014-Aug-19 06:31N 45°37' W 073°30'0 0.0
2014-Aug-19 05:31N 45°37' W 073°30'0 0.0
2014-Aug-19 04:31N 45°37' W 073°30'0 0.0
2014-Aug-19 03:31N 45°37' W 073°30'0 0.0
2014-Aug-19 02:31N 45°37' W 073°30'0 0.0
2014-Aug-19 01:31N 45°37' W 073°30'0 0.0
2014-Aug-19 00:31N 45°37' W 073°30'0 0.0
2014-Aug-18 23:31N 45°37' W 073°30'0 0.0
2014-Aug-18 22:31N 45°37' W 073°30'0 0.0
2014-Aug-18 21:31N 45°37' W 073°30'0 0.0
2014-Aug-18 20:31N 45°37' W 073°30'0 0.0
2014-Aug-18 19:31N 45°37' W 073°30'0 0.0
2014-Aug-18 18:31N 45°37' W 073°30'0 0.0
2014-Aug-18 17:31N 45°37' W 073°30'0 0.0
2014-Aug-18 16:31N 45°37' W 073°30'0 0.0
2014-Aug-18 15:31N 45°37' W 073°30'0 0.0
2014-Aug-18 14:31N 45°37' W 073°30'0 0.0
2014-Aug-18 13:31N 45°37' W 073°30'0 0.0
2014-Aug-18 12:32N 45°37' W 073°30'3 3.3
2014-Aug-18 11:32N 45°34' W 073°31'0 0.0
2014-Aug-18 10:32N 45°34' W 073°31'0 0.0
2014-Aug-18 09:32N 45°34' W 073°31'0 0.0
2014-Aug-18 08:32N 45°34' W 073°31'0 0.0
2014-Aug-18 07:32N 45°34' W 073°31'0 0.0
2014-Aug-18 06:32N 45°34' W 073°31'0 0.0
2014-Aug-18 05:32N 45°34' W 073°31'0 0.0
2014-Aug-18 04:32N 45°34' W 073°31'0 0.0
2014-Aug-18 03:32N 45°34' W 073°31'0 0.0
2014-Aug-18 02:32N 45°34' W 073°31'0 0.0
2014-Aug-18 01:32N 45°34' W 073°31'0 0.0
2014-Aug-18 00:32N 45°34' W 073°31'0 0.0
2014-Aug-17 18:32N 45°34' W 073°31'0 0.0
2014-Aug-17 17:32N 45°34' W 073°31'0 0.0
2014-Aug-17 16:32N 45°34' W 073°31'0 0.0
2014-Aug-17 15:33N 45°34' W 073°31'2 2.3
2014-Aug-17 14:33N 45°36' W 073°30'8 7.5
2014-Aug-17 13:33N 45°43' W 073°26'1010.4
2014-Aug-17 12:33N 45°51' W 073°17'1110.5
2014-Aug-17 11:33N 46°00' W 073°11'1010.0
2014-Aug-17 10:33N 46°06' W 072°59'1110.7
2014-Aug-17 09:33N 46°13' W 072°48'10 9.9
2014-Aug-17 08:33N 46°18' W 072°35'1111.3
2014-Aug-17 07:33N 46°25' W 072°22'1212.4
2014-Aug-17 06:33N 46°33' W 072°09'1313.2
2014-Aug-17 05:33N 46°41' W 071°53'1413.4
2014-Aug-17 04:33N 46°41' W 071°33'1515.0
2014-Aug-17 03:33N 46°47' W 071°13'8 7.9
2014-Aug-17 02:30N 46°51' W 071°02'1111.5
2014-Aug-17 01:33N 46°58' W 070°50'1716.7
2014-Aug-17 00:33N 47°12' W 070°37'1717.2
2014-Aug-16 23:33N 47°26' W 070°23'7114.2
2014-Aug-16 18:33N 48°22' W 069°17'1312.9
2014-Aug-16 17:33N 48°30' W 069°02'1413.8
2014-Aug-16 16:33N 48°38' W 068°45'1413.7
2014-Aug-16 15:33N 48°45' W 068°27'1514.6
2014-Aug-16 14:33N 48°53' W 068°09'1514.6
2014-Aug-16 13:33N 49°00' W 067°50'1414.4
2014-Aug-16 12:33N 49°09' W 067°32'1515.2
2014-Aug-16 11:33N 49°15' W 067°11'1413.5
2014-Aug-16 10:33N 49°18' W 066°50'1413.5
2014-Aug-16 09:33N 49°22' W 066°30'1313.4
2014-Aug-16 08:33N 49°25' W 066°10'1413.8
2014-Aug-16 07:33N 49°28' W 065°50'  
2014-Aug-13 05:16N 40°27' W 067°45'1013.9
2014-Aug-13 04:33N 40°27' W 067°58'1514.0
2014-Aug-13 03:27N 40°27' W 068°18'1213.7
2014-Aug-13 02:33N 40°27' W 068°34'1313.1
2014-Aug-13 01:33N 40°26' W 068°51'1413.6
2014-Aug-13 00:34N 40°26' W 069°09'1413.6
2014-Aug-12 23:34N 40°26' W 069°27'1313.5
2014-Aug-12 22:33N 40°25' W 069°45'1413.9
2014-Aug-12 21:33N 40°24' W 070°03'1414.0
2014-Aug-12 20:33N 40°25' W 070°22'1414.0
2014-Aug-12 19:33N 40°25' W 070°40'1413.8
2014-Aug-12 18:33N 40°24' W 070°58'1414.0
2014-Aug-12 17:33N 40°24' W 071°16'1413.7
2014-Aug-12 16:33N 40°24' W 071°34'1313.4
2014-Aug-12 15:33N 40°23' W 071°52'1413.8
2014-Aug-12 14:34N 40°23' W 072°10'1414.1
2014-Aug-12 13:33N 40°22' W 072°28'1413.9
2014-Aug-12 12:34N 40°22' W 072°47'1413.6
2014-Aug-12 11:33N 40°22' W 073°05'1313.5
2014-Aug-12 10:34N 40°23' W 073°22'1413.5
2014-Aug-12 09:34N 40°26' W 073°40'1212.2
2014-Aug-12 08:34N 40°29' W 073°55'1211.8
2014-Aug-12 07:34N 40°39' W 074°04'2 1.9
2014-Aug-12 06:32N 40°39' W 074°07'0 0.0
2014-Aug-12 05:32N 40°39' W 074°07'0 0.0
2014-Aug-12 04:26N 40°39' W 074°07'0 0.0
2014-Aug-12 03:32N 40°39' W 074°07'0 0.0
2014-Aug-12 02:32N 40°39' W 074°07'0 0.0
2014-Aug-12 01:32N 40°39' W 074°07'0 0.0
2014-Aug-12 00:32N 40°39' W 074°07'0 0.0
2014-Aug-11 12:20N 40°39' W 074°07'0 0.0
2014-Aug-11 11:20N 40°39' W 074°07'0 0.0
2014-Aug-11 10:14N 40°39' W 074°07'0 0.0
2014-Aug-11 09:26N 40°39' W 074°07'0 0.0
2014-Aug-11 05:23N 40°39' W 074°07'0 0.0
2014-Aug-11 04:26N 40°39' W 074°07'0 0.0
2014-Aug-11 03:32N 40°39' W 074°07'0 0.0
2014-Aug-11 02:32N 40°39' W 074°07'0 0.0
2014-Aug-11 01:32N 40°39' W 074°07'  
Track history (hours):
 
Tides and Currents Weather Stations Pressure Air Temp Water Temp Dewpoint Dewpoint Depression Visibility Wind Speed Wind Dir Waves Ship Positions

Butterfly

Last reported at 2014-Aug-20 12:32 UTC. Time now 2014-Aug-20 12:42 UTC.
Position N 45°38' W 073°29'.

Length 182 m; draft 9.3 m.

Type: Ship. MMSI: 311985000.

Date/timePositionNaut miles runAvg speedWind from/ knotsBaromVisibWave heightAir tempDewpointWater temp
2014-Aug-20 12:32N 45°38' W 073°29'0 0.0
2014-Aug-20 11:32N 45°38' W 073°29'0 0.0
2014-Aug-20 10:32N 45°38' W 073°29'0 0.0
2014-Aug-20 09:32N 45°38' W 073°29'0 0.0
2014-Aug-20 08:32N 45°38' W 073°29'0 0.0
2014-Aug-20 07:32N 45°38' W 073°29'0 0.0
2014-Aug-20 06:33N 45°38' W 073°29'1 1.0
2014-Aug-20 05:33N 45°37' W 073°30'1 0.7
2014-Aug-20 04:28N 45°37' W 073°30'0 0.0
2014-Aug-20 03:31N 45°37' W 073°30'0 0.0
2014-Aug-20 02:31N 45°37' W 073°30'0 0.0
2014-Aug-20 01:31N 45°37' W 073°30'0 0.0
2014-Aug-20 00:31N 45°37' W 073°30'0 0.0
2014-Aug-19 23:31N 45°37' W 073°30'0 0.0
2014-Aug-19 22:31N 45°37' W 073°30'0 0.0
2014-Aug-19 21:31N 45°37' W 073°30'0 0.0
2014-Aug-19 20:31N 45°37' W 073°30'0 0.0
2014-Aug-19 19:31N 45°37' W 073°30'0 0.0
2014-Aug-19 18:31N 45°37' W 073°30'0 0.0
2014-Aug-19 17:31N 45°37' W 073°30'0 0.0
2014-Aug-19 16:31N 45°37' W 073°30'0 0.0
2014-Aug-19 15:31N 45°37' W 073°30'0 0.0
2014-Aug-19 14:31N 45°37' W 073°30'0 0.0
2014-Aug-19 13:31N 45°37' W 073°30'0 0.0
2014-Aug-19 12:31N 45°37' W 073°30'0 0.0
2014-Aug-19 11:31N 45°37' W 073°30'0 0.0
2014-Aug-19 10:31N 45°37' W 073°30'0 0.0
2014-Aug-19 09:31N 45°37' W 073°30'0 0.0
2014-Aug-19 08:31N 45°37' W 073°30'0 0.0
2014-Aug-19 07:31N 45°37' W 073°30'0 0.0
2014-Aug-19 06:31N 45°37' W 073°30'0 0.0
2014-Aug-19 05:31N 45°37' W 073°30'0 0.0
2014-Aug-19 04:31N 45°37' W 073°30'0 0.0
2014-Aug-19 03:31N 45°37' W 073°30'0 0.0
2014-Aug-19 02:31N 45°37' W 073°30'0 0.0
2014-Aug-19 01:31N 45°37' W 073°30'0 0.0
2014-Aug-19 00:31N 45°37' W 073°30'0 0.0
2014-Aug-18 23:31N 45°37' W 073°30'0 0.0
2014-Aug-18 22:31N 45°37' W 073°30'0 0.0
2014-Aug-18 21:31N 45°37' W 073°30'0 0.0
2014-Aug-18 20:31N 45°37' W 073°30'0 0.0
2014-Aug-18 19:31N 45°37' W 073°30'0 0.0
2014-Aug-18 18:31N 45°37' W 073°30'0 0.0
2014-Aug-18 17:31N 45°37' W 073°30'0 0.0
2014-Aug-18 16:31N 45°37' W 073°30'0 0.0
2014-Aug-18 15:31N 45°37' W 073°30'0 0.0
2014-Aug-18 14:31N 45°37' W 073°30'0 0.0
2014-Aug-18 13:31N 45°37' W 073°30'0 0.0
2014-Aug-18 12:32N 45°37' W 073°30'3 3.3
2014-Aug-18 11:32N 45°34' W 073°31'0 0.0
2014-Aug-18 10:32N 45°34' W 073°31'0 0.0
2014-Aug-18 09:32N 45°34' W 073°31'0 0.0
2014-Aug-18 08:32N 45°34' W 073°31'0 0.0
2014-Aug-18 07:32N 45°34' W 073°31'0 0.0
2014-Aug-18 06:32N 45°34' W 073°31'0 0.0
2014-Aug-18 05:32N 45°34' W 073°31'0 0.0
2014-Aug-18 04:32N 45°34' W 073°31'0 0.0
2014-Aug-18 03:32N 45°34' W 073°31'0 0.0
2014-Aug-18 02:32N 45°34' W 073°31'0 0.0
2014-Aug-18 01:32N 45°34' W 073°31'0 0.0
2014-Aug-18 00:32N 45°34' W 073°31'0 0.0
2014-Aug-17 18:32N 45°34' W 073°31'0 0.0
2014-Aug-17 17:32N 45°34' W 073°31'0 0.0
2014-Aug-17 16:32N 45°34' W 073°31'0 0.0
2014-Aug-17 15:33N 45°34' W 073°31'2 2.3
2014-Aug-17 14:33N 45°36' W 073°30'8 7.5
2014-Aug-17 13:33N 45°43' W 073°26'1010.4
2014-Aug-17 12:33N 45°51' W 073°17'1110.5
2014-Aug-17 11:33N 46°00' W 073°11'1010.0
2014-Aug-17 10:33N 46°06' W 072°59'1110.7
2014-Aug-17 09:33N 46°13' W 072°48'10 9.9
2014-Aug-17 08:33N 46°18' W 072°35'1111.3
2014-Aug-17 07:33N 46°25' W 072°22'1212.4
2014-Aug-17 06:33N 46°33' W 072°09'1313.2
2014-Aug-17 05:33N 46°41' W 071°53'1413.4
2014-Aug-17 04:33N 46°41' W 071°33'1515.0
2014-Aug-17 03:33N 46°47' W 071°13'8 7.9
2014-Aug-17 02:30N 46°51' W 071°02'1111.5
2014-Aug-17 01:33N 46°58' W 070°50'1716.7
2014-Aug-17 00:33N 47°12' W 070°37'1717.2
2014-Aug-16 23:33N 47°26' W 070°23'7114.2
2014-Aug-16 18:33N 48°22' W 069°17'1312.9
2014-Aug-16 17:33N 48°30' W 069°02'1413.8
2014-Aug-16 16:33N 48°38' W 068°45'1413.7
2014-Aug-16 15:33N 48°45' W 068°27'1514.6
2014-Aug-16 14:33N 48°53' W 068°09'1514.6
2014-Aug-16 13:33N 49°00' W 067°50'1414.4
2014-Aug-16 12:33N 49°09' W 067°32'1515.2
2014-Aug-16 11:33N 49°15' W 067°11'1413.5
2014-Aug-16 10:33N 49°18' W 066°50'1413.5
2014-Aug-16 09:33N 49°22' W 066°30'1313.4
2014-Aug-16 08:33N 49°25' W 066°10'1413.8
2014-Aug-16 07:33N 49°28' W 065°50'  
2014-Aug-13 05:16N 40°27' W 067°45'1013.9
2014-Aug-13 04:33N 40°27' W 067°58'1514.0
2014-Aug-13 03:27N 40°27' W 068°18'1213.7
2014-Aug-13 02:33N 40°27' W 068°34'1313.1
2014-Aug-13 01:33N 40°26' W 068°51'1413.6
2014-Aug-13 00:34N 40°26' W 069°09'1413.6
2014-Aug-12 23:34N 40°26' W 069°27'1313.5
2014-Aug-12 22:33N 40°25' W 069°45'1413.9
2014-Aug-12 21:33N 40°24' W 070°03'1414.0
2014-Aug-12 20:33N 40°25' W 070°22'1414.0
2014-Aug-12 19:33N 40°25' W 070°40'1413.8
2014-Aug-12 18:33N 40°24' W 070°58'1414.0
2014-Aug-12 17:33N 40°24' W 071°16'1413.7
2014-Aug-12 16:33N 40°24' W 071°34'1313.4
2014-Aug-12 15:33N 40°23' W 071°52'1413.8
2014-Aug-12 14:34N 40°23' W 072°10'1414.1
2014-Aug-12 13:33N 40°22' W 072°28'1413.9
2014-Aug-12 12:34N 40°22' W 072°47'1413.6
2014-Aug-12 11:33N 40°22' W 073°05'1313.5
2014-Aug-12 10:34N 40°23' W 073°22'1413.5
2014-Aug-12 09:34N 40°26' W 073°40'1212.2
2014-Aug-12 08:34N 40°29' W 073°55'1211.8
2014-Aug-12 07:34N 40°39' W 074°04'2 1.9
2014-Aug-12 06:32N 40°39' W 074°07'0 0.0
2014-Aug-12 05:32N 40°39' W 074°07'0 0.0
2014-Aug-12 04:26N 40°39' W 074°07'0 0.0
2014-Aug-12 03:32N 40°39' W 074°07'0 0.0
2014-Aug-12 02:32N 40°39' W 074°07'0 0.0
2014-Aug-12 01:32N 40°39' W 074°07'0 0.0
2014-Aug-12 00:32N 40°39' W 074°07'0 0.0
2014-Aug-11 12:20N 40°39' W 074°07'0 0.0
2014-Aug-11 11:20N 40°39' W 074°07'0 0.0
2014-Aug-11 10:14N 40°39' W 074°07'0 0.0
2014-Aug-11 09:26N 40°39' W 074°07'0 0.0
2014-Aug-11 05:23N 40°39' W 074°07'0 0.0
2014-Aug-11 04:26N 40°39' W 074°07'0 0.0
2014-Aug-11 03:32N 40°39' W 074°07'0 0.0
2014-Aug-11 02:32N 40°39' W 074°07'0 0.0
2014-Aug-11 01:32N 40°39' W 074°07'  

Dump ship's entire track history